Time;durP1;ratioP1;P1;durP2;ratioP2;P2;SDS_P1;SDS_P2;PMS_P1;PMS_P2;Temp;Humidity;BMP_temperature;BMP_pressure;BME280_temperature;BME280_humidity;BME280_pressure;Samples;Min_cycle;Max_cycle;Signal;HPM_P1;HPM_P2
2023/07/25 00:01:01;;;;;;;7.32;1.85;;;;;;;;;;5021165;28;20042;-77
2023/07/25 00:03:27;;;;;;;11.65;3.47;;;;;;;;;;5012213;28;20033;-77
2023/07/25 00:05:53;;;;;;;17.30;3.13;;;;;;;;;;4995328;28;20119;-77
2023/07/25 00:08:21;;;;;;;9.13;1.85;;;;;;;;;;4997721;28;20037;-78
2023/07/25 00:10:50;;;;;;;16.05;2.47;;;;;;;;;;5001679;28;20032;-77
2023/07/25 00:13:16;;;;;;;6.97;2.05;;;;;;;;;;5020778;28;20053;-73
2023/07/25 00:15:43;;;;;;;11.02;2.17;;;;;;;;;;5002051;28;20036;-73
2023/07/25 00:18:09;;;;;;;11.90;2.10;;;;;;;;;;5024081;28;21015;-72
2023/07/25 00:20:34;;;;;;;13.05;2.08;;;;;;;;;;5018915;28;20024;-72
2023/07/25 00:23:00;;;;;;;15.02;2.40;;;;;;;;;;4998055;28;20032;-72
2023/07/25 00:25:25;;;;;;;10.00;2.53;;;;;;;;;;5015274;28;20037;-72
2023/07/25 00:27:53;;;;;;;8.02;1.92;;;;;;;;;;4982296;28;20041;-72
2023/07/25 00:30:19;;;;;;;8.65;1.90;;;;;;;;;;4998696;28;20058;-72
2023/07/25 00:32:45;;;;;;;11.60;2.50;;;;;;;;;;4995255;28;20045;-72
2023/07/25 00:35:10;;;;;;;16.52;2.60;;;;;;;;;;4998987;28;20037;-73
2023/07/25 00:37:35;;;;;;;13.77;2.35;;;;;;;;;;4993983;28;20041;-73
2023/07/25 00:40:01;;;;;;;14.05;2.55;;;;;;;;;;5046600;28;20042;-73
2023/07/25 00:42:26;;;;;;;15.65;2.58;;;;;;;;;;5019162;28;20710;-72
2023/07/25 00:44:52;;;;;;;10.40;2.50;;;;;;;;;;5018630;28;20094;-72
2023/07/25 00:47:18;;;;;;;8.00;1.80;;;;;;;;;;5017385;28;20036;-72
2023/07/25 00:49:46;;;;;;;10.07;2.25;;;;;;;;;;5032546;28;20033;-74
2023/07/25 00:52:11;;;;;;;14.13;2.05;;;;;;;;;;5034086;28;20045;-71
2023/07/25 00:54:44;;;;;;;8.82;1.90;;;;;;;;;;5017821;28;20493;-72
2023/07/25 00:57:10;;;;;;;12.50;2.38;;;;;;;;;;5016777;28;20040;-73
2023/07/25 00:59:35;;;;;;;16.35;2.30;;;;;;;;;;5018152;28;20036;-72
2023/07/25 01:02:00;;;;;;;8.13;2.22;;;;;;;;;;5021285;28;20119;-73
2023/07/25 01:04:26;;;;;;;13.15;1.83;;;;;;;;;;5012242;28;20037;-73
2023/07/25 01:06:57;;;;;;;9.23;1.85;;;;;;;;;;5010995;28;20037;-72
2023/07/25 01:09:35;;;;;;;11.20;2.45;;;;;;;;;;5013577;28;20120;-72
2023/07/25 01:12:01;;;;;;;10.02;2.40;;;;;;;;;;5008911;28;20047;-72
2023/07/25 01:14:26;;;;;;;12.30;2.30;;;;;;;;;;5016052;28;20033;-71
2023/07/25 01:16:51;;;;;;;14.90;2.58;;;;;;;;;;5012753;28;20144;-72
2023/07/25 01:19:18;;;;;;;11.43;2.20;;;;;;;;;;5013765;28;20036;-74
2023/07/25 01:21:43;;;;;;;8.23;2.05;;;;;;;;;;5025501;28;20671;-73
2023/07/25 01:24:09;;;;;;;8.70;2.10;;;;;;;;;;5015630;28;20044;-73
2023/07/25 01:26:34;;;;;;;8.70;1.65;;;;;;;;;;5015716;28;20040;-80
2023/07/25 01:29:03;;;;;;;12.35;2.47;;;;;;;;;;5013130;28;20037;-79
2023/07/25 01:31:29;;;;;;;14.73;2.20;;;;;;;;;;5015275;28;21008;-80
2023/07/25 01:33:54;;;;;;;11.63;2.33;;;;;;;;;;5003613;28;20057;-78
2023/07/25 01:36:23;;;;;;;13.10;2.38;;;;;;;;;;5018229;28;20082;-77
2023/07/25 01:38:48;;;;;;;14.23;2.90;;;;;;;;;;5028433;28;20049;-77
2023/07/25 01:41:14;;;;;;;18.15;2.50;;;;;;;;;;4994999;28;20034;-78
2023/07/25 01:43:39;;;;;;;10.85;2.58;;;;;;;;;;4995552;28;20043;-78
2023/07/25 01:46:05;;;;;;;10.95;2.30;;;;;;;;;;5010547;28;20037;-75
2023/07/25 01:48:30;;;;;;;15.90;2.83;;;;;;;;;;5016600;28;20048;-76
2023/07/25 01:50:56;;;;;;;14.07;2.45;;;;;;;;;;5011192;28;20033;-76
2023/07/25 01:53:21;;;;;;;11.50;2.30;;;;;;;;;;4988909;28;20035;-77
2023/07/25 01:55:47;;;;;;;14.38;2.50;;;;;;;;;;5016339;28;20037;-72
2023/07/25 01:58:12;;;;;;;21.55;3.28;;;;;;;;;;4988040;28;20662;-72
2023/07/25 02:00:38;;;;;;;13.50;2.72;;;;;;;;;;5001810;28;20445;-72
2023/07/25 02:03:03;;;;;;;16.27;3.25;;;;;;;;;;5036667;28;20122;-72
2023/07/25 02:05:29;;;;;;;16.17;2.22;;;;;;;;;;5014871;28;20037;-72
2023/07/25 02:07:54;;;;;;;15.25;3.10;;;;;;;;;;5016463;28;20040;-74
2023/07/25 02:10:19;;;;;;;13.57;2.70;;;;;;;;;;5017828;28;20090;-74
2023/07/25 02:12:44;;;;;;;12.65;2.42;;;;;;;;;;5017152;28;20783;-73
2023/07/25 02:15:10;;;;;;;13.40;3.03;;;;;;;;;;5012150;28;20056;-74
2023/07/25 02:17:38;;;;;;;13.10;2.50;;;;;;;;;;5032683;28;20045;-72
2023/07/25 02:20:07;;;;;;;11.68;2.35;;;;;;;;;;5015321;28;20368;-72
2023/07/25 02:22:32;;;;;;;12.57;2.08;;;;;;;;;;5009996;28;20033;-72
2023/07/25 02:25:01;;;;;;;9.00;1.80;;;;;;;;;;4997369;28;20111;-72
2023/07/25 02:27:26;;;;;;;9.32;1.88;;;;;;;;;;5030021;28;20052;-72
2023/07/25 02:29:52;;;;;;;11.38;2.05;;;;;;;;;;5012581;28;20076;-72
2023/07/25 02:32:17;;;;;;;10.25;2.10;;;;;;;;;;5034502;28;20048;-72
2023/07/25 02:34:45;;;;;;;12.27;2.03;;;;;;;;;;5037103;28;20903;-71
2023/07/25 02:37:11;;;;;;;9.00;2.10;;;;;;;;;;4997639;28;20048;-72
2023/07/25 02:39:39;;;;;;;10.88;2.35;;;;;;;;;;5029239;28;20032;-77
2023/07/25 02:42:05;;;;;;;12.32;1.77;;;;;;;;;;5009408;28;20158;-77
2023/07/25 02:44:31;;;;;;;9.23;2.03;;;;;;;;;;5008527;28;20261;-77
2023/07/25 02:46:56;;;;;;;11.77;1.98;;;;;;;;;;5031987;28;20078;-78
2023/07/25 02:49:21;;;;;;;12.73;2.00;;;;;;;;;;5011697;28;20033;-78
2023/07/25 02:51:47;;;;;;;12.30;2.13;;;;;;;;;;5047161;28;20179;-76
2023/07/25 02:54:12;;;;;;;12.23;1.98;;;;;;;;;;5018564;28;20041;-78
2023/07/25 02:56:41;;;;;;;12.63;1.85;;;;;;;;;;5008023;28;20103;-77
2023/07/25 02:59:06;;;;;;;9.65;1.80;;;;;;;;;;5044972;28;20032;-77
2023/07/25 03:01:31;;;;;;;11.65;2.42;;;;;;;;;;4996621;28;20048;-75
2023/07/25 03:03:57;;;;;;;11.38;2.38;;;;;;;;;;5015230;28;20037;-77
2023/07/25 03:06:22;;;;;;;10.30;1.92;;;;;;;;;;5015453;28;20033;-76
2023/07/25 03:08:48;;;;;;;14.65;2.00;;;;;;;;;;5029943;28;20033;-75
2023/07/25 03:11:16;;;;;;;11.85;1.77;;;;;;;;;;5016154;28;20654;-76
2023/07/25 03:13:41;;;;;;;9.13;1.55;;;;;;;;;;5028186;28;20035;-77
2023/07/25 03:16:10;;;;;;;10.25;1.67;;;;;;;;;;4983356;28;20069;-74
2023/07/25 03:18:36;;;;;;;7.57;1.50;;;;;;;;;;5023626;28;20168;-77
2023/07/25 03:21:01;;;;;;;12.63;1.77;;;;;;;;;;5003603;28;20128;-77
2023/07/25 03:23:27;;;;;;;10.00;1.70;;;;;;;;;;5034815;28;20537;-77
2023/07/25 03:26:00;;;;;;;11.77;1.73;;;;;;;;;;5010968;28;20188;-76
2023/07/25 03:28:30;;;;;;;9.07;1.98;;;;;;;;;;4998312;28;20048;-77
2023/07/25 03:31:01;;;;;;;11.18;2.17;;;;;;;;;;5010670;28;20031;-77
2023/07/25 03:33:27;;;;;;;11.82;1.70;;;;;;;;;;5012190;28;20532;-74
2023/07/25 03:35:55;;;;;;;11.23;1.75;;;;;;;;;;5020689;28;20032;-78
2023/07/25 03:38:24;;;;;;;13.65;1.35;;;;;;;;;;4994217;28;20073;-78
2023/07/25 03:40:54;;;;;;;9.85;1.40;;;;;;;;;;4993223;28;20512;-76
2023/07/25 03:43:20;;;;;;;9.18;1.80;;;;;;;;;;5031787;28;20036;-77
2023/07/25 03:45:46;;;;;;;9.82;1.60;;;;;;;;;;5015509;28;20116;-78
2023/07/25 03:48:15;;;;;;;13.32;1.77;;;;;;;;;;5017545;28;20033;-78
2023/07/25 03:50:41;;;;;;;10.85;1.50;;;;;;;;;;4998647;28;20037;-76
2023/07/25 03:53:06;;;;;;;9.25;1.40;;;;;;;;;;4997020;28;20063;-76
2023/07/25 03:55:32;;;;;;;8.68;1.45;;;;;;;;;;4992145;28;20045;-77
2023/07/25 03:58:00;;;;;;;13.95;2.22;;;;;;;;;;5005576;28;20040;-78
2023/07/25 04:00:26;;;;;;;9.48;1.50;;;;;;;;;;5038358;28;20040;-77
2023/07/25 04:02:52;;;;;;;10.98;2.00;;;;;;;;;;5028347;28;20078;-76
2023/07/25 04:05:21;;;;;;;8.98;1.90;;;;;;;;;;5032953;28;20114;-78
2023/07/25 04:07:46;;;;;;;10.75;1.70;;;;;;;;;;5034976;28;20079;-77
2023/07/25 04:10:12;;;;;;;10.05;1.92;;;;;;;;;;5002951;28;20029;-77
2023/07/25 04:12:40;;;;;;;9.32;1.67;;;;;;;;;;5036132;28;20295;-77
2023/07/25 04:15:06;;;;;;;14.10;1.40;;;;;;;;;;5014770;28;22258;-76
2023/07/25 04:17:32;;;;;;;9.23;1.70;;;;;;;;;;5032601;28;20033;-76
2023/07/25 04:19:57;;;;;;;8.80;1.90;;;;;;;;;;5011991;28;20099;-77
2023/07/25 04:22:23;;;;;;;6.15;1.30;;;;;;;;;;5005282;28;20037;-75
2023/07/25 04:24:53;;;;;;;7.97;1.40;;;;;;;;;;5018413;28;20032;-75
2023/07/25 04:27:22;;;;;;;12.65;1.80;;;;;;;;;;5011905;28;20052;-76
2023/07/25 04:29:50;;;;;;;14.93;1.92;;;;;;;;;;5011654;28;20496;-78
2023/07/25 04:32:15;;;;;;;12.30;1.60;;;;;;;;;;5033725;28;20048;-77
2023/07/25 04:34:40;;;;;;;9.95;1.52;;;;;;;;;;5019704;28;20041;-76
2023/07/25 04:37:06;;;;;;;9.95;1.60;;;;;;;;;;5020572;28;20405;-75
2023/07/25 04:39:32;;;;;;;7.47;1.50;;;;;;;;;;5005439;28;20038;-76
2023/07/25 04:41:57;;;;;;;6.20;1.60;;;;;;;;;;5023284;28;20032;-77
2023/07/25 04:44:23;;;;;;;7.82;1.25;;;;;;;;;;4991430;28;20065;-76
2023/07/25 04:46:49;;;;;;;8.35;1.30;;;;;;;;;;5024484;28;20695;-77
2023/07/25 04:49:16;;;;;;;9.10;1.38;;;;;;;;;;5016337;28;20029;-75
2023/07/25 04:51:44;;;;;;;12.23;1.75;;;;;;;;;;5015629;28;20052;-77
2023/07/25 04:54:10;;;;;;;12.80;2.20;;;;;;;;;;5015592;28;20037;-74
2023/07/25 04:56:35;;;;;;;7.53;1.23;;;;;;;;;;5015804;28;20231;-75
2023/07/25 04:59:01;;;;;;;9.15;1.40;;;;;;;;;;5034372;28;20047;-76
2023/07/25 05:01:28;;;;;;;9.60;1.63;;;;;;;;;;5016626;28;20429;-74
2023/07/25 05:03:57;;;;;;;19.75;2.95;;;;;;;;;;5013567;28;20044;-73
2023/07/25 05:06:22;;;;;;;8.18;1.50;;;;;;;;;;5014074;28;20037;-71
2023/07/25 05:08:47;;;;;;;11.10;1.48;;;;;;;;;;5017015;28;20040;-79
2023/07/25 05:11:13;;;;;;;7.18;1.83;;;;;;;;;;5013059;28;20044;-77
2023/07/25 05:13:38;;;;;;;9.18;1.42;;;;;;;;;;5017177;28;20039;-78
2023/07/25 05:16:04;;;;;;;10.68;1.55;;;;;;;;;;5017129;28;20037;-75
2023/07/25 05:18:29;;;;;;;9.13;1.45;;;;;;;;;;5015204;28;20091;-77
2023/07/25 05:20:54;;;;;;;4.25;0.95;;;;;;;;;;5015463;28;20056;-76
2023/07/25 05:23:19;;;;;;;8.55;1.20;;;;;;;;;;5016087;28;20619;-77
2023/07/25 05:25:45;;;;;;;7.18;1.10;;;;;;;;;;5019777;28;20036;-77
2023/07/25 05:28:11;;;;;;;7.25;1.20;;;;;;;;;;5048793;28;20052;-76
2023/07/25 05:30:36;;;;;;;7.25;1.08;;;;;;;;;;5016811;28;20033;-78
2023/07/25 05:33:03;;;;;;;5.97;1.17;;;;;;;;;;5016960;28;20049;-77
2023/07/25 05:35:29;;;;;;;7.28;1.17;;;;;;;;;;5016690;28;20036;-77
2023/07/25 05:37:57;;;;;;;6.30;1.25;;;;;;;;;;5018026;28;20413;-77
2023/07/25 05:40:22;;;;;;;7.75;1.30;;;;;;;;;;5017962;28;20047;-78
2023/07/25 05:42:47;;;;;;;11.38;1.30;;;;;;;;;;5016206;28;20037;-79
2023/07/25 05:45:13;;;;;;;10.38;1.40;;;;;;;;;;5033670;28;20523;-78
2023/07/25 05:47:38;;;;;;;18.25;2.38;;;;;;;;;;5015725;28;20044;-79
2023/07/25 05:50:04;;;;;;;8.68;1.17;;;;;;;;;;5016847;28;20065;-76
2023/07/25 05:52:31;;;;;;;9.38;1.00;;;;;;;;;;5015242;28;20044;-78
2023/07/25 05:54:57;;;;;;;6.45;1.27;;;;;;;;;;5031598;28;20052;-80
2023/07/25 05:57:22;;;;;;;3.92;0.80;;;;;;;;;;5017775;28;20037;-78
2023/07/25 05:59:49;;;;;;;7.25;1.10;;;;;;;;;;5016996;28;20044;-79
2023/07/25 06:02:16;;;;;;;9.82;1.17;;;;;;;;;;5016057;28;20029;-78
2023/07/25 06:04:43;;;;;;;12.23;1.42;;;;;;;;;;5016181;28;20037;-77
2023/07/25 06:07:08;;;;;;;9.00;1.30;;;;;;;;;;5011183;28;20037;-78
2023/07/25 06:09:33;;;;;;;8.32;1.55;;;;;;;;;;5012658;28;20103;-77
2023/07/25 06:11:59;;;;;;;4.60;1.30;;;;;;;;;;5017352;28;20044;-78
2023/07/25 06:14:25;;;;;;;7.95;1.38;;;;;;;;;;5029619;28;20029;-77
2023/07/25 06:16:50;;;;;;;11.25;1.20;;;;;;;;;;5016692;28;20036;-75
2023/07/25 06:19:15;;;;;;;7.57;1.17;;;;;;;;;;5021767;28;20036;-78
2023/07/25 06:21:41;;;;;;;9.82;1.40;;;;;;;;;;5029335;28;20033;-77
2023/07/25 06:24:06;;;;;;;7.53;1.30;;;;;;;;;;5040897;28;20040;-77
2023/07/25 06:26:31;;;;;;;7.63;1.10;;;;;;;;;;5043357;28;20152;-77
2023/07/25 06:28:57;;;;;;;8.65;1.27;;;;;;;;;;5021031;28;20094;-76
2023/07/25 06:31:22;;;;;;;8.27;1.00;;;;;;;;;;5019043;28;20041;-76
2023/07/25 06:33:47;;;;;;;3.90;1.00;;;;;;;;;;5052818;28;20155;-76
2023/07/25 06:36:13;;;;;;;4.28;0.90;;;;;;;;;;5015921;28;20033;-78
2023/07/25 06:38:38;;;;;;;10.73;1.40;;;;;;;;;;5019741;28;20037;-76
2023/07/25 06:41:03;;;;;;;8.52;1.23;;;;;;;;;;5031013;28;20055;-76
2023/07/25 06:43:29;;;;;;;10.02;1.50;;;;;;;;;;5019660;28;20051;-75
2023/07/25 06:45:54;;;;;;;10.05;1.15;;;;;;;;;;5008641;28;20045;-73
2023/07/25 06:48:19;;;;;;;5.78;1.20;;;;;;;;;;5001047;28;20033;-76
2023/07/25 06:50:47;;;;;;;10.02;1.25;;;;;;;;;;4999993;28;20493;-78
2023/07/25 06:53:12;;;;;;;6.03;1.13;;;;;;;;;;5017161;28;20043;-75
2023/07/25 06:55:38;;;;;;;5.65;1.00;;;;;;;;;;5020300;28;20189;-75
2023/07/25 06:58:03;;;;;;;8.73;1.25;;;;;;;;;;5006086;28;20033;-73
2023/07/25 07:00:31;;;;;;;8.82;1.40;;;;;;;;;;5017240;28;20033;-74
2023/07/25 07:02:56;;;;;;;8.13;1.42;;;;;;;;;;4999356;28;20440;-74
2023/07/25 07:05:21;;;;;;;4.93;1.00;;;;;;;;;;4999749;28;20034;-74
2023/07/25 07:07:47;;;;;;;6.82;1.30;;;;;;;;;;5002403;28;20371;-74
2023/07/25 07:10:12;;;;;;;7.90;1.02;;;;;;;;;;4999834;28;20541;-73
2023/07/25 07:12:45;;;;;;;8.90;1.23;;;;;;;;;;4998235;28;20041;-73
2023/07/25 07:15:14;;;;;;;5.68;1.45;;;;;;;;;;5017895;28;20126;-74
2023/07/25 07:17:40;;;;;;;11.65;1.48;;;;;;;;;;5020025;28;20291;-72
2023/07/25 07:20:05;;;;;;;9.07;1.50;;;;;;;;;;5015527;28;20131;-75
2023/07/25 07:22:33;;;;;;;9.00;1.15;;;;;;;;;;5019662;28;20444;-72
2023/07/25 07:24:59;;;;;;;7.50;1.10;;;;;;;;;;5015713;28;20236;-71
2023/07/25 07:27:24;;;;;;;9.00;1.38;;;;;;;;;;5011614;28;20045;-71
2023/07/25 07:29:51;;;;;;;9.23;1.17;;;;;;;;;;5019166;28;20037;-73
2023/07/25 07:32:17;;;;;;;13.07;1.55;;;;;;;;;;5003862;28;20141;-72
2023/07/25 07:34:45;;;;;;;15.20;1.77;;;;;;;;;;5010353;28;20033;-72
2023/07/25 07:37:12;;;;;;;6.18;1.08;;;;;;;;;;5016067;28;22002;-74
2023/07/25 07:39:39;;;;;;;6.90;1.38;;;;;;;;;;4998763;28;20556;-74
2023/07/25 07:42:05;;;;;;;7.15;1.40;;;;;;;;;;5000696;28;20048;-72
2023/07/25 07:44:32;;;;;;;13.20;1.70;;;;;;;;;;5019155;28;20114;-72
2023/07/25 07:47:01;;;;;;;8.32;1.15;;;;;;;;;;5018654;28;20037;-73
2023/07/25 07:49:28;;;;;;;6.40;1.30;;;;;;;;;;5018729;28;20111;-74
2023/07/25 07:51:56;;;;;;;8.00;1.55;;;;;;;;;;5019383;28;20060;-74
2023/07/25 07:54:21;;;;;;;8.27;1.05;;;;;;;;;;5019920;28;20147;-73
2023/07/25 07:56:49;;;;;;;6.57;1.25;;;;;;;;;;5016016;28;20037;-75
2023/07/25 07:59:14;;;;;;;6.53;1.23;;;;;;;;;;5019373;28;20033;-76
2023/07/25 08:01:39;;;;;;;8.82;1.25;;;;;;;;;;5019202;28;20037;-72
2023/07/25 08:04:05;;;;;;;7.50;1.10;;;;;;;;;;5012421;28;20037;-73
2023/07/25 08:06:31;;;;;;;6.97;1.10;;;;;;;;;;5013864;28;20033;-74
2023/07/25 08:08:56;;;;;;;12.13;1.13;;;;;;;;;;5007439;28;20081;-73
2023/07/25 08:11:21;;;;;;;5.20;1.00;;;;;;;;;;5003057;28;20038;-75
2023/07/25 08:13:46;;;;;;;8.60;1.17;;;;;;;;;;4999256;28;20042;-73
2023/07/25 08:16:12;;;;;;;8.95;1.50;;;;;;;;;;4981354;28;20597;-76
2023/07/25 08:18:37;;;;;;;10.40;1.73;;;;;;;;;;5016215;28;20045;-74
2023/07/25 08:21:02;;;;;;;3.75;0.85;;;;;;;;;;5020752;28;20033;-72
2023/07/25 08:23:28;;;;;;;7.55;1.40;;;;;;;;;;5017412;28;20036;-73
2023/07/25 08:25:54;;;;;;;7.30;1.05;;;;;;;;;;5016416;28;20131;-73
2023/07/25 08:28:19;;;;;;;7.07;1.30;;;;;;;;;;5017768;28;20041;-71
2023/07/25 08:30:47;;;;;;;11.55;1.42;;;;;;;;;;5016388;28;20044;-74
2023/07/25 08:33:15;;;;;;;8.07;1.05;;;;;;;;;;5016454;28;20131;-70
2023/07/25 08:35:40;;;;;;;8.35;1.00;;;;;;;;;;5012019;28;20034;-70
2023/07/25 08:38:05;;;;;;;4.72;1.10;;;;;;;;;;5001284;28;20091;-74
2023/07/25 08:40:31;;;;;;;8.68;1.10;;;;;;;;;;5014823;28;20043;-76
2023/07/25 08:43:00;;;;;;;9.65;1.42;;;;;;;;;;5016072;28;20045;-75
2023/07/25 08:45:26;;;;;;;7.70;1.10;;;;;;;;;;5017593;28;21092;-76
2023/07/25 08:47:52;;;;;;;9.43;1.27;;;;;;;;;;5018979;28;20039;-75
2023/07/25 08:50:19;;;;;;;5.70;0.90;;;;;;;;;;5021128;28;20033;-74
2023/07/25 08:52:48;;;;;;;10.27;1.30;;;;;;;;;;5047759;28;20454;-73
2023/07/25 08:55:13;;;;;;;12.90;1.40;;;;;;;;;;5013087;28;20047;-75
2023/07/25 08:57:39;;;;;;;9.73;1.20;;;;;;;;;;5020847;28;20049;-75
2023/07/25 09:00:06;;;;;;;2.85;0.75;;;;;;;;;;5019240;28;20059;-75
2023/07/25 09:02:32;;;;;;;7.43;1.10;;;;;;;;;;5019592;28;20044;-75
2023/07/25 09:05:00;;;;;;;9.68;1.40;;;;;;;;;;5021282;28;20041;-75
2023/07/25 09:07:25;;;;;;;8.77;1.45;;;;;;;;;;5016999;28;20199;-77
2023/07/25 09:09:51;;;;;;;6.72;1.13;;;;;;;;;;5022995;28;20037;-76
2023/07/25 09:12:19;;;;;;;10.35;1.45;;;;;;;;;;5048669;28;20056;-74
2023/07/25 09:14:44;;;;;;;5.22;1.10;;;;;;;;;;5034191;28;20433;-73
2023/07/25 09:17:13;;;;;;;6.78;0.95;;;;;;;;;;5016026;28;20068;-76
2023/07/25 09:19:38;;;;;;;6.85;1.05;;;;;;;;;;5050519;28;20566;-74
2023/07/25 09:22:04;;;;;;;9.80;1.30;;;;;;;;;;5016196;28;20047;-73
2023/07/25 09:24:36;;;;;;;7.15;1.23;;;;;;;;;;5017397;28;20038;-75
2023/07/25 09:27:01;;;;;;;6.95;1.00;;;;;;;;;;5018689;28;20068;-76
2023/07/25 09:29:30;;;;;;;11.35;1.35;;;;;;;;;;5020884;28;20037;-74
2023/07/25 09:31:56;;;;;;;15.68;1.52;;;;;;;;;;5014182;28;20040;-77
2023/07/25 09:34:25;;;;;;;7.95;0.82;;;;;;;;;;5019142;28;20040;-77
2023/07/25 09:36:50;;;;;;;8.07;1.10;;;;;;;;;;5019382;28;20151;-74
2023/07/25 09:39:17;;;;;;;6.22;1.10;;;;;;;;;;5018690;28;20832;-76
2023/07/25 09:41:43;;;;;;;6.28;1.20;;;;;;;;;;5018381;28;20048;-75
2023/07/25 09:44:09;;;;;;;10.68;1.50;;;;;;;;;;5001687;28;20052;-73
2023/07/25 09:46:34;;;;;;;11.50;1.20;;;;;;;;;;4997214;28;20524;-79
2023/07/25 09:48:59;;;;;;;13.52;1.40;;;;;;;;;;4995595;28;20041;-75
2023/07/25 09:51:24;;;;;;;8.13;1.20;;;;;;;;;;4997888;28;20052;-75
2023/07/25 09:53:51;;;;;;;8.38;1.20;;;;;;;;;;4999353;28;20034;-74
2023/07/25 09:56:16;;;;;;;10.35;1.40;;;;;;;;;;5000010;28;20033;-73
2023/07/25 09:58:41;;;;;;;7.82;1.30;;;;;;;;;;4996244;28;22264;-74
2023/07/25 10:01:07;;;;;;;8.02;1.17;;;;;;;;;;4998380;28;20047;-73
2023/07/25 10:03:33;;;;;;;9.13;1.30;;;;;;;;;;4997914;28;20042;-73
2023/07/25 10:05:58;;;;;;;8.88;1.20;;;;;;;;;;5002694;28;20065;-75
2023/07/25 10:08:26;;;;;;;8.63;1.55;;;;;;;;;;5005021;28;20044;-76
2023/07/25 10:10:54;;;;;;;9.77;1.15;;;;;;;;;;5014213;28;20044;-74
2023/07/25 10:13:19;;;;;;;8.07;1.25;;;;;;;;;;5000630;28;20081;-75
2023/07/25 10:15:45;;;;;;;9.20;1.17;;;;;;;;;;5000605;28;20036;-74
2023/07/25 10:18:17;;;;;;;8.07;1.25;;;;;;;;;;4999688;28;20553;-73
2023/07/25 10:20:43;;;;;;;9.90;1.60;;;;;;;;;;5014608;28;20045;-75
2023/07/25 10:23:09;;;;;;;8.75;1.45;;;;;;;;;;5000723;28;20034;-78
2023/07/25 10:25:37;;;;;;;10.75;1.40;;;;;;;;;;4999748;28;20402;-75
2023/07/25 10:28:03;;;;;;;10.40;1.38;;;;;;;;;;4998203;28;20092;-75
2023/07/25 10:30:29;;;;;;;10.93;1.20;;;;;;;;;;4996677;28;20124;-74
2023/07/25 10:32:58;;;;;;;6.22;1.20;;;;;;;;;;5001267;28;20063;-75
2023/07/25 10:35:40;;;;;;;7.93;1.15;;;;;;;;;;4999524;28;20053;-75
2023/07/25 10:38:05;;;;;;;;;;;;;;;;;;5019408;28;20812;-75
2023/07/25 10:40:49;;;;;;;12.77;1.30;;;;;;;;;;5017735;28;19916;-74
2023/07/25 10:43:14;;;;;;;7.72;1.20;;;;;;;;;;5002391;28;20304;-75
2023/07/25 10:45:47;;;;;;;9.23;1.00;;;;;;;;;;4996919;28;20052;-74
2023/07/25 10:48:26;;;;;;;9.38;1.05;;;;;;;;;;5014354;28;20047;-75
2023/07/25 10:50:51;;;;;;;7.63;1.00;;;;;;;;;;5015563;28;20342;-73
2023/07/25 10:53:20;;;;;;;4.63;0.90;;;;;;;;;;5014554;28;20043;-76
2023/07/25 10:56:04;;;;;;;6.53;1.02;;;;;;;;;;5015159;28;20044;-75
2023/07/25 10:58:33;;;;;;;6.63;1.05;;;;;;;;;;5017263;28;20041;-76
2023/07/25 11:00:59;;;;;;;6.93;0.90;;;;;;;;;;5013556;28;20166;-75
2023/07/25 11:03:28;;;;;;;7.85;0.93;;;;;;;;;;5015107;28;20037;-75
2023/07/25 11:06:06;;;;;;;16.38;1.98;;;;;;;;;;4997187;28;20055;-74
2023/07/25 11:08:31;;;;;;;5.15;1.10;;;;;;;;;;5025613;28;20132;-75
2023/07/25 11:11:04;;;;;;;5.63;1.48;;;;;;;;;;4993773;28;20048;-75
2023/07/25 11:13:31;;;;;;;6.93;1.00;;;;;;;;;;4994604;28;20037;-74
2023/07/25 11:15:57;;;;;;;5.18;1.00;;;;;;;;;;4995942;28;20034;-74
2023/07/25 11:18:22;;;;;;;4.22;0.70;;;;;;;;;;4997029;28;20036;-75
2023/07/25 11:20:59;;;;;;;7.28;0.93;;;;;;;;;;4994514;28;20033;-74
2023/07/25 11:23:27;;;;;;;5.32;0.80;;;;;;;;;;5006013;28;20150;-74
2023/07/25 11:25:57;;;;;;;4.90;0.88;;;;;;;;;;5014292;28;20538;-73
2023/07/25 11:28:22;;;;;;;4.75;1.00;;;;;;;;;;5047654;28;20111;-77
2023/07/25 11:30:48;;;;;;;8.68;1.00;;;;;;;;;;5010824;28;20082;-76
2023/07/25 11:33:13;;;;;;;6.78;1.20;;;;;;;;;;5013886;28;20041;-76
2023/07/25 11:35:41;;;;;;;5.13;0.85;;;;;;;;;;5015542;28;20044;-74
2023/07/25 11:38:06;;;;;;;4.72;1.00;;;;;;;;;;5013574;28;20037;-75
2023/07/25 11:40:32;;;;;;;8.50;1.20;;;;;;;;;;4997417;28;20080;-74
2023/07/25 11:42:57;;;;;;;9.77;1.20;;;;;;;;;;5038545;28;20075;-75
2023/07/25 11:45:23;;;;;;;7.50;1.13;;;;;;;;;;5014459;28;20045;-75
2023/07/25 11:47:49;;;;;;;3.60;1.00;;;;;;;;;;5014501;28;20033;-73
2023/07/25 11:50:23;;;;;;;6.03;1.20;;;;;;;;;;5013859;28;20079;-74
2023/07/25 11:52:48;;;;;;;6.38;1.35;;;;;;;;;;5010253;28;20100;-74
2023/07/25 11:55:14;;;;;;;11.35;1.48;;;;;;;;;;5012082;28;20044;-75
2023/07/25 11:57:42;;;;;;;7.75;1.27;;;;;;;;;;4992502;28;20181;-74
2023/07/25 12:00:11;;;;;;;11.13;1.48;;;;;;;;;;5029572;28;20118;-73
2023/07/25 12:02:40;;;;;;;10.50;1.48;;;;;;;;;;5013397;28;20044;-74
2023/07/25 12:05:06;;;;;;;7.28;1.40;;;;;;;;;;5010386;28;20144;-75
2023/07/25 12:07:50;;;;;;;7.25;1.27;;;;;;;;;;5013507;28;20109;-75
2023/07/25 12:10:29;;;;;;;7.75;1.25;;;;;;;;;;5014186;28;20033;-74
2023/07/25 12:12:55;;;;;;;6.00;0.80;;;;;;;;;;5014344;28;20055;-75
2023/07/25 12:15:21;;;;;;;6.97;1.05;;;;;;;;;;5016905;28;20037;-75
2023/07/25 12:17:47;;;;;;;8.50;1.33;;;;;;;;;;4995284;28;20121;-76
2023/07/25 12:20:13;;;;;;;9.07;1.20;;;;;;;;;;5016284;28;20043;-76
2023/07/25 12:22:39;;;;;;;6.05;1.08;;;;;;;;;;5018543;28;20037;-75
2023/07/25 12:25:05;;;;;;;6.53;1.10;;;;;;;;;;5014489;28;20041;-77
2023/07/25 12:27:33;;;;;;;6.15;1.20;;;;;;;;;;5014265;28;20143;-76
2023/07/25 12:29:58;;;;;;;6.07;1.08;;;;;;;;;;5043929;28;20091;-76
2023/07/25 12:32:24;;;;;;;5.15;1.10;;;;;;;;;;5000930;28;20064;-76
2023/07/25 12:34:49;;;;;;;5.78;1.10;;;;;;;;;;5042312;28;20112;-78
2023/07/25 12:37:14;;;;;;;6.75;1.00;;;;;;;;;;5006789;28;20036;-77
2023/07/25 12:39:40;;;;;;;5.35;1.00;;;;;;;;;;5015580;28;20033;-74
2023/07/25 12:42:07;;;;;;;8.65;1.25;;;;;;;;;;5012717;28;20094;-75
2023/07/25 12:44:34;;;;;;;6.78;1.25;;;;;;;;;;5012067;28;20041;-75
2023/07/25 12:46:59;;;;;;;8.73;1.30;;;;;;;;;;5024051;28;20427;-73
2023/07/25 12:49:25;;;;;;;11.95;1.55;;;;;;;;;;5010760;28;20046;-76
2023/07/25 12:51:50;;;;;;;5.13;1.15;;;;;;;;;;5024120;28;20136;-75
2023/07/25 12:54:15;;;;;;;6.10;1.00;;;;;;;;;;5001238;28;20048;-77
2023/07/25 12:56:40;;;;;;;8.68;1.30;;;;;;;;;;5014971;28;20037;-75
2023/07/25 12:59:06;;;;;;;4.40;0.93;;;;;;;;;;5013885;28;20486;-74
2023/07/25 13:01:31;;;;;;;3.92;1.00;;;;;;;;;;5005303;28;20059;-74
2023/07/25 13:03:56;;;;;;;6.55;1.15;;;;;;;;;;5012977;28;20064;-75
2023/07/25 13:06:22;;;;;;;9.68;1.25;;;;;;;;;;5014093;28;20036;-74
2023/07/25 13:08:47;;;;;;;6.75;0.90;;;;;;;;;;5015540;28;20048;-74
2023/07/25 13:11:12;;;;;;;4.50;0.90;;;;;;;;;;5012841;28;20049;-73
2023/07/25 13:13:40;;;;;;;6.00;1.10;;;;;;;;;;5027446;28;20425;-76
2023/07/25 13:16:08;;;;;;;6.53;1.10;;;;;;;;;;5014594;28;20057;-75
2023/07/25 13:18:33;;;;;;;7.03;1.10;;;;;;;;;;5015014;28;20028;-73
2023/07/25 13:21:00;;;;;;;4.50;0.95;;;;;;;;;;5015616;28;20041;-73
2023/07/25 13:23:26;;;;;;;6.30;1.00;;;;;;;;;;5016321;28;20036;-75
2023/07/25 13:25:51;;;;;;;7.18;0.95;;;;;;;;;;5010657;28;20047;-77
2023/07/25 13:28:16;;;;;;;3.92;1.15;;;;;;;;;;5012916;28;20063;-76
2023/07/25 13:30:42;;;;;;;4.45;0.98;;;;;;;;;;5012679;28;20102;-73
2023/07/25 13:33:07;;;;;;;9.50;1.10;;;;;;;;;;5012085;28;20529;-77
2023/07/25 13:35:33;;;;;;;4.65;1.20;;;;;;;;;;4990799;28;20465;-72
2023/07/25 13:37:58;;;;;;;9.45;1.17;;;;;;;;;;4992198;28;20053;-78
2023/07/25 13:40:24;;;;;;;8.15;1.02;;;;;;;;;;4992128;28;20041;-76
2023/07/25 13:42:49;;;;;;;5.97;1.20;;;;;;;;;;4991535;28;20091;-75
2023/07/25 13:45:14;;;;;;;7.57;1.20;;;;;;;;;;4993848;28;20072;-75
2023/07/25 13:47:40;;;;;;;11.77;1.55;;;;;;;;;;5008880;28;20453;-73
2023/07/25 13:50:05;;;;;;;12.70;1.67;;;;;;;;;;5014617;28;20615;-74
2023/07/25 13:52:31;;;;;;;7.20;1.38;;;;;;;;;;4996506;28;20485;-76
2023/07/25 13:54:56;;;;;;;12.55;1.58;;;;;;;;;;5044550;28;20514;-76
2023/07/25 13:57:24;;;;;;;13.02;1.42;;;;;;;;;;4999463;28;20033;-75
2023/07/25 13:59:49;;;;;;;7.32;1.60;;;;;;;;;;5017107;28;20032;-77
2023/07/25 14:02:15;;;;;;;10.95;1.50;;;;;;;;;;5013774;28;20042;-73
2023/07/25 14:04:40;;;;;;;11.13;1.42;;;;;;;;;;5017209;28;20181;-75
2023/07/25 14:07:06;;;;;;;9.27;1.52;;;;;;;;;;5028739;28;20028;-74
2023/07/25 14:09:31;;;;;;;5.05;0.98;;;;;;;;;;5015691;28;20040;-75
2023/07/25 14:11:58;;;;;;;7.15;1.10;;;;;;;;;;5015889;28;20045;-73
2023/07/25 14:14:26;;;;;;;10.43;1.27;;;;;;;;;;5013775;28;20497;-74
2023/07/25 14:16:51;;;;;;;10.57;1.20;;;;;;;;;;5013658;28;20088;-75
2023/07/25 14:19:17;;;;;;;7.15;1.30;;;;;;;;;;5010764;28;20519;-75
2023/07/25 14:21:42;;;;;;;11.55;1.45;;;;;;;;;;5013920;28;20033;-75
2023/07/25 14:24:08;;;;;;;10.07;1.10;;;;;;;;;;4998163;28;20044;-75
2023/07/25 14:26:33;;;;;;;9.52;0.90;;;;;;;;;;5014836;28;20040;-75
2023/07/25 14:28:59;;;;;;;6.97;1.27;;;;;;;;;;5014784;28;20045;-73
2023/07/25 14:31:28;;;;;;;9.60;1.60;;;;;;;;;;5017096;28;20124;-75
2023/07/25 14:33:53;;;;;;;13.43;1.40;;;;;;;;;;4996633;28;20038;-75